Time;durP1;ratioP1;P1;durP2;ratioP2;P2;SDS_P1;SDS_P2;PMS_P1;PMS_P2;Temp;Humidity;BMP_temperature;BMP_pressure;BME280_temperature;BME280_humidity;BME280_pressure;Samples;Min_cycle;Max_cycle;Signal;HPM_P1;HPM_P2
2022/04/20 00:01:46;;;;;;;5.68;4.10;;;13.10;87.70;;;;;;5005650;28;20398;-69
2022/04/20 00:04:12;;;;;;;6.60;3.38;;;13.20;87.00;;;;;;5002923;28;20079;-69
2022/04/20 00:06:38;;;;;;;5.15;4.05;;;13.10;87.30;;;;;;5005617;28;20083;-69
2022/04/20 00:09:04;;;;;;;4.88;3.78;;;13.00;87.20;;;;;;4999143;28;20075;-69
2022/04/20 00:11:30;;;;;;;5.18;3.90;;;13.10;88.20;;;;;;5003916;28;20041;-69
2022/04/20 00:13:55;;;;;;;4.90;3.65;;;13.10;88.60;;;;;;5002050;28;20448;-69
2022/04/20 00:16:21;;;;;;;15.35;4.10;;;13.00;87.50;;;;;;5002666;28;20026;-69
2022/04/20 00:18:46;;;;;;;8.63;4.50;;;13.00;87.90;;;;;;5007182;28;20037;-70
2022/04/20 00:21:12;;;;;;;4.43;3.33;;;13.00;88.50;;;;;;5007261;28;20038;-69
2022/04/20 00:23:38;;;;;;;4.65;3.80;;;12.80;89.20;;;;;;5001547;28;20038;-70
2022/04/20 00:26:04;;;;;;;4.20;3.80;;;12.80;89.30;;;;;;5001299;28;20042;-69
2022/04/20 00:28:29;;;;;;;8.60;4.05;;;12.80;89.40;;;;;;5006193;28;20018;-69
2022/04/20 00:30:55;;;;;;;6.47;3.83;;;12.90;90.10;;;;;;5003676;28;20397;-69
2022/04/20 00:33:20;;;;;;;6.60;4.05;;;12.80;89.70;;;;;;5002067;28;20033;-69
2022/04/20 00:35:46;;;;;;;4.68;4.13;;;12.80;88.90;;;;;;5004223;28;20734;-69
2022/04/20 00:38:12;;;;;;;4.25;3.55;;;12.80;88.60;;;;;;5001114;28;20038;-69
2022/04/20 00:40:37;;;;;;;5.00;3.72;;;12.80;90.10;;;;;;5001874;28;20040;-69
2022/04/20 00:43:04;;;;;;;4.47;4.05;;;12.70;90.00;;;;;;5005900;28;20482;-69
2022/04/20 00:45:30;;;;;;;8.00;4.50;;;12.80;89.30;;;;;;4999453;28;20037;-69
2022/04/20 00:47:58;;;;;;;6.20;4.25;;;12.80;88.60;;;;;;5001913;28;20045;-69
2022/04/20 00:50:24;;;;;;;6.38;3.95;;;12.70;89.30;;;;;;5005785;28;20034;-69
2022/04/20 00:52:50;;;;;;;6.32;4.55;;;12.70;89.80;;;;;;5000893;28;20032;-69
2022/04/20 00:55:15;;;;;;;6.93;4.18;;;12.60;90.40;;;;;;5003770;28;20113;-68
2022/04/20 00:57:41;;;;;;;5.28;4.25;;;12.60;89.50;;;;;;5001760;28;20081;-68
2022/04/20 01:00:07;;;;;;;5.88;4.43;;;12.60;89.80;;;;;;5001567;28;20049;-69
2022/04/20 01:02:33;;;;;;;6.53;4.00;;;12.60;90.00;;;;;;5008026;28;20359;-68
2022/04/20 01:04:58;;;;;;;5.00;3.90;;;12.50;89.80;;;;;;5000529;28;20036;-69
2022/04/20 01:07:24;;;;;;;6.70;4.45;;;12.50;90.20;;;;;;5003317;28;20040;-69
2022/04/20 01:09:50;;;;;;;6.30;4.60;;;12.50;89.90;;;;;;5005218;28;20099;-69
2022/04/20 01:12:17;;;;;;;6.07;3.80;;;12.50;90.00;;;;;;5006260;28;20536;-69
2022/04/20 01:14:44;;;;;;;5.43;4.20;;;12.50;90.30;;;;;;5004903;28;20026;-69
2022/04/20 01:17:09;;;;;;;4.88;4.05;;;12.40;89.90;;;;;;5003805;28;20022;-69
2022/04/20 01:19:38;;;;;;;6.13;4.03;;;12.40;89.80;;;;;;4999668;28;20022;-69
2022/04/20 01:22:08;;;;;;;5.22;4.38;;;12.40;89.70;;;;;;5000347;28;20025;-69
2022/04/20 01:24:35;;;;;;;7.13;4.47;;;12.40;89.60;;;;;;5003970;28;20038;-69
2022/04/20 01:27:01;;;;;;;5.45;4.43;;;12.30;90.30;;;;;;5000835;28;20036;-69
2022/04/20 01:29:28;;;;;;;5.05;3.85;;;12.30;89.40;;;;;;5007273;28;20394;-69
2022/04/20 01:31:54;;;;;;;6.15;4.68;;;12.30;90.20;;;;;;5007316;28;20046;-68
2022/04/20 01:34:20;;;;;;;9.68;4.05;;;12.20;89.30;;;;;;5000190;28;20093;-68
2022/04/20 01:36:46;;;;;;;4.85;4.35;;;12.20;90.40;;;;;;5003452;28;20054;-68
2022/04/20 01:39:12;;;;;;;6.65;4.65;;;12.20;90.30;;;;;;5005685;28;20026;-68
2022/04/20 01:41:38;;;;;;;5.97;4.05;;;12.20;90.00;;;;;;4984202;28;20037;-69
2022/04/20 01:44:04;;;;;;;6.60;4.50;;;12.20;90.50;;;;;;5002066;28;20038;-69
2022/04/20 01:46:29;;;;;;;5.60;4.68;;;12.20;90.70;;;;;;4997602;28;20048;-69
2022/04/20 01:48:55;;;;;;;11.43;4.68;;;12.10;90.70;;;;;;5000111;28;20139;-68
2022/04/20 01:54:05;;;;;;;7.28;5.20;;;12.10;90.70;;;;;;5002403;28;20095;-70
2022/04/20 01:56:31;;;;;;;5.80;4.30;;;12.10;90.50;;;;;;5008146;28;20427;-67
2022/04/20 01:58:56;;;;;;;4.63;4.03;;;12.10;90.80;;;;;;5003242;28;20037;-68
2022/04/20 02:04:06;;;;;;;5.97;4.68;;;12.00;90.50;;;;;;5005527;28;20500;-67
2022/04/20 02:06:32;;;;;;;5.82;4.18;;;12.00;90.50;;;;;;5008126;28;20033;-70
2022/04/20 02:08:58;;;;;;;6.47;4.03;;;12.00;90.90;;;;;;5003860;28;20041;-67
2022/04/20 02:11:24;;;;;;;4.68;3.85;;;11.90;90.50;;;;;;5005908;28;20474;-68
2022/04/20 02:13:49;;;;;;;8.63;4.60;;;11.80;91.00;;;;;;5005207;28;20059;-69
2022/04/20 02:16:15;;;;;;;5.35;4.85;;;11.80;90.60;;;;;;5004335;28;20021;-70
2022/04/20 02:18:41;;;;;;;5.68;4.10;;;11.80;90.50;;;;;;5006304;28;20556;-70
2022/04/20 02:21:06;;;;;;;6.80;4.63;;;11.70;91.20;;;;;;5004823;28;20101;-69
2022/04/20 02:23:32;;;;;;;6.22;4.72;;;11.70;91.10;;;;;;5006147;28;20023;-69
2022/04/20 02:25:57;;;;;;;9.13;5.60;;;11.60;91.00;;;;;;5002984;28;20121;-69
2022/04/20 02:28:23;;;;;;;8.40;5.32;;;11.60;91.60;;;;;;5005188;28;20487;-69
2022/04/20 02:30:49;;;;;;;7.25;4.97;;;11.50;92.40;;;;;;5009015;28;20061;-69
2022/04/20 02:33:15;;;;;;;5.82;4.32;;;11.50;92.00;;;;;;5004874;28;20367;-69
2022/04/20 02:35:41;;;;;;;7.50;4.93;;;11.40;92.50;;;;;;5009437;28;20075;-69
2022/04/20 02:38:11;;;;;;;6.13;4.82;;;11.40;92.00;;;;;;4998618;28;20023;-69
2022/04/20 02:40:44;;;;;;;8.60;5.38;;;11.40;91.70;;;;;;5005958;28;20045;-69
2022/04/20 02:43:10;;;;;;;8.18;4.85;;;11.30;91.10;;;;;;5004441;28;20482;-69
2022/04/20 02:45:36;;;;;;;5.28;4.55;;;11.30;91.50;;;;;;5007971;28;20042;-69
2022/04/20 02:48:03;;;;;;;7.35;5.03;;;11.30;91.10;;;;;;5001316;28;20078;-69
2022/04/20 02:50:29;;;;;;;10.13;4.97;;;11.20;92.00;;;;;;5001092;28;20062;-69
2022/04/20 02:52:55;;;;;;;5.53;4.43;;;11.10;92.10;;;;;;5007419;28;20050;-69
2022/04/20 02:55:21;;;;;;;7.05;4.28;;;11.00;92.20;;;;;;5003047;28;20073;-69
2022/04/20 02:57:46;;;;;;;5.80;4.22;;;11.00;92.10;;;;;;5000638;28;20046;-69
2022/04/20 03:00:13;;;;;;;7.55;4.97;;;11.00;91.80;;;;;;5006629;28;20034;-69
2022/04/20 03:02:39;;;;;;;5.38;4.47;;;11.00;91.80;;;;;;5002103;28;20057;-69
2022/04/20 03:05:05;;;;;;;6.63;4.78;;;10.90;91.60;;;;;;4999636;28;20074;-69
2022/04/20 03:07:31;;;;;;;5.90;4.72;;;10.90;92.40;;;;;;5004022;28;20019;-69
2022/04/20 03:09:56;;;;;;;6.20;4.72;;;10.80;91.70;;;;;;5014663;28;20060;-69
2022/04/20 03:12:22;;;;;;;5.47;4.90;;;10.90;91.90;;;;;;5010557;28;20034;-69
2022/04/20 03:14:48;;;;;;;5.72;4.93;;;10.90;92.00;;;;;;5001852;28;20099;-68
2022/04/20 03:17:14;;;;;;;7.30;4.93;;;10.80;92.30;;;;;;4999138;28;20067;-70
2022/04/20 03:19:39;;;;;;;5.97;4.75;;;10.80;92.10;;;;;;4998110;28;20038;-69
2022/04/20 03:22:05;;;;;;;7.45;4.72;;;10.80;91.50;;;;;;4999936;28;20022;-69
2022/04/20 03:24:30;;;;;;;6.15;4.72;;;10.80;91.50;;;;;;5003932;28;20465;-69
2022/04/20 03:26:56;;;;;;;6.13;4.63;;;10.80;91.70;;;;;;5000718;28;20080;-70
2022/04/20 03:29:22;;;;;;;7.22;4.97;;;10.70;91.80;;;;;;4997473;28;20026;-69
2022/04/20 03:31:48;;;;;;;7.60;5.15;;;10.70;92.10;;;;;;4998220;28;20512;-69
2022/04/20 03:34:14;;;;;;;9.68;4.93;;;10.70;91.90;;;;;;5004383;28;20045;-69
2022/04/20 03:36:39;;;;;;;8.63;4.75;;;10.70;92.10;;;;;;5000255;28;20021;-69
2022/04/20 03:39:06;;;;;;;7.07;5.03;;;10.60;91.90;;;;;;5004284;28;20041;-69
2022/04/20 03:41:32;;;;;;;10.55;5.72;;;10.60;91.40;;;;;;5002107;28;20502;-68
2022/04/20 03:43:57;;;;;;;10.60;4.85;;;10.60;91.80;;;;;;5005270;28;20044;-68
2022/04/20 03:46:24;;;;;;;7.32;5.18;;;10.50;91.70;;;;;;4999779;28;20414;-69
2022/04/20 03:48:50;;;;;;;7.90;5.20;;;10.50;92.20;;;;;;4996372;28;20032;-69
2022/04/20 03:51:16;;;;;;;6.45;4.82;;;10.50;92.10;;;;;;5002309;28;20088;-69
2022/04/20 03:53:41;;;;;;;9.20;5.13;;;10.50;91.70;;;;;;4992852;28;20072;-69
2022/04/20 03:56:07;;;;;;;8.43;4.75;;;10.50;91.70;;;;;;5001360;28;20105;-69
2022/04/20 03:58:33;;;;;;;6.10;4.63;;;10.50;92.10;;;;;;5000342;28;20050;-69
2022/04/20 04:00:59;;;;;;;6.07;4.20;;;10.40;91.50;;;;;;5000702;28;20023;-69
2022/04/20 04:03:24;;;;;;;8.65;5.15;;;10.40;91.80;;;;;;5001050;28;20056;-69
2022/04/20 04:05:51;;;;;;;6.90;4.85;;;10.40;91.40;;;;;;5007597;28;20034;-69
2022/04/20 04:08:16;;;;;;;8.07;5.20;;;10.30;91.60;;;;;;5002128;28;20106;-69
2022/04/20 04:10:42;;;;;;;10.15;5.07;;;10.30;91.40;;;;;;5000954;28;20121;-69
2022/04/20 04:13:07;;;;;;;7.30;4.97;;;10.30;92.20;;;;;;5004507;28;20078;-68
2022/04/20 04:15:33;;;;;;;5.68;4.97;;;10.30;91.30;;;;;;5004245;28;20359;-68
2022/04/20 04:17:59;;;;;;;9.05;5.47;;;10.30;92.00;;;;;;4998425;28;20024;-69
2022/04/20 04:20:28;;;;;;;6.90;4.75;;;10.20;91.70;;;;;;5001810;28;20045;-68
2022/04/20 04:22:54;;;;;;;6.15;4.97;;;10.20;91.60;;;;;;5000442;28;20050;-69
2022/04/20 04:25:20;;;;;;;11.02;5.47;;;10.20;91.80;;;;;;5002447;28;20126;-68
2022/04/20 04:27:47;;;;;;;6.68;5.45;;;10.10;91.60;;;;;;4999653;28;20060;-68
2022/04/20 04:30:13;;;;;;;8.45;5.93;;;10.10;91.40;;;;;;5000643;28;20095;-68
2022/04/20 04:32:39;;;;;;;9.57;5.57;;;10.10;91.80;;;;;;5000714;28;20017;-69
2022/04/20 04:35:06;;;;;;;7.90;5.65;;;10.10;92.00;;;;;;5001042;28;20053;-68
2022/04/20 04:37:34;;;;;;;8.50;5.60;;;10.10;92.00;;;;;;4996288;28;20030;-69
2022/04/20 04:40:00;;;;;;;10.35;5.88;;;10.10;92.10;;;;;;5000627;28;20125;-68
2022/04/20 04:42:26;;;;;;;8.10;5.15;;;10.00;92.00;;;;;;4999192;28;20373;-69
2022/04/20 04:44:52;;;;;;;8.57;5.78;;;10.00;92.70;;;;;;4999347;28;20128;-68
2022/04/20 04:50:03;;;;;;;8.15;5.10;;;9.90;92.20;;;;;;5003577;28;20064;-68
2022/04/20 04:52:29;;;;;;;7.85;5.85;;;9.90;91.90;;;;;;5003182;28;20023;-68
2022/04/20 04:54:55;;;;;;;7.07;5.55;;;9.90;92.40;;;;;;5006966;28;20466;-68
2022/04/20 04:57:20;;;;;;;6.60;4.85;;;9.90;92.00;;;;;;4999731;28;20079;-68
2022/04/20 04:59:46;;;;;;;8.68;5.97;;;9.90;92.10;;;;;;4997756;28;20595;-68
2022/04/20 05:02:12;;;;;;;8.43;5.80;;;9.80;92.60;;;;;;4998051;28;20034;-68
2022/04/20 05:04:42;;;;;;;8.02;5.45;;;9.90;92.60;;;;;;4998547;28;20026;-68
2022/04/20 05:07:08;;;;;;;7.53;5.10;;;9.80;92.30;;;;;;4998877;28;20040;-68
2022/04/20 05:09:33;;;;;;;9.68;5.35;;;9.80;92.30;;;;;;5002884;28;20096;-68
2022/04/20 05:11:59;;;;;;;10.20;5.70;;;9.80;92.90;;;;;;4997493;28;20049;-68
2022/04/20 05:14:25;;;;;;;7.35;5.25;;;9.80;93.10;;;;;;4996845;28;20033;-68
2022/04/20 05:16:51;;;;;;;9.90;6.28;;;9.80;93.30;;;;;;5000251;28;20051;-68
2022/04/20 05:19:17;;;;;;;11.15;6.50;;;9.80;92.80;;;;;;4997045;28;20767;-68
2022/04/20 05:21:43;;;;;;;7.60;6.32;;;9.70;93.20;;;;;;4997721;28;20026;-68
2022/04/20 05:24:09;;;;;;;8.65;5.60;;;9.80;93.30;;;;;;4998729;28;20031;-68
2022/04/20 05:26:35;;;;;;;8.23;5.38;;;9.70;93.30;;;;;;4998881;28;20039;-68
2022/04/20 05:29:00;;;;;;;6.68;5.38;;;9.70;93.00;;;;;;5003537;28;20067;-68
2022/04/20 05:31:26;;;;;;;9.38;5.60;;;9.70;93.80;;;;;;5006083;28;20482;-68
2022/04/20 05:33:52;;;;;;;8.55;5.07;;;9.70;94.30;;;;;;5004769;28;20462;-68
2022/04/20 05:36:18;;;;;;;9.02;5.47;;;9.70;94.00;;;;;;5005195;28;20034;-68
2022/04/20 05:41:41;;;;;;;10.55;5.82;;;9.80;94.10;;;;;;4993676;28;20037;-68
2022/04/20 05:44:11;;;;;;;10.35;5.40;;;9.80;93.00;;;;;;5001068;28;20125;-68
2022/04/20 05:46:39;;;;;;;7.57;4.82;;;9.80;94.00;;;;;;5006172;28;20557;-68
2022/04/20 05:49:05;;;;;;;7.32;5.57;;;9.80;94.20;;;;;;4999688;28;20030;-68
2022/04/20 05:51:32;;;;;;;8.98;4.88;;;9.80;93.10;;;;;;5004405;28;20159;-68
2022/04/20 05:53:57;;;;;;;9.15;5.35;;;9.80;92.90;;;;;;5000435;28;20560;-68
2022/04/20 05:56:23;;;;;;;13.68;5.88;;;9.80;94.70;;;;;;4999413;28;20022;-68
2022/04/20 05:58:52;;;;;;;9.27;5.82;;;9.90;93.30;;;;;;5007246;28;20030;-68
2022/04/20 06:01:19;;;;;;;10.45;6.47;;;9.90;93.20;;;;;;5001668;28;20079;-68
2022/04/20 06:03:45;;;;;;;6.78;6.13;;;10.00;93.90;;;;;;5002598;28;20038;-68
2022/04/20 06:06:12;;;;;;;8.38;5.43;;;10.00;93.00;;;;;;5005913;28;20042;-68
2022/04/20 06:08:37;;;;;;;12.00;5.63;;;10.10;92.90;;;;;;5003890;28;20056;-68
2022/04/20 06:11:03;;;;;;;9.85;4.95;;;10.10;94.20;;;;;;5005166;28;20041;-68
2022/04/20 06:13:29;;;;;;;8.85;5.30;;;10.00;93.30;;;;;;5005457;28;20078;-68
2022/04/20 06:15:55;;;;;;;10.77;5.38;;;10.10;93.20;;;;;;5003593;28;20467;-68
2022/04/20 06:18:21;;;;;;;11.52;6.10;;;10.20;93.20;;;;;;5005730;28;20026;-68
2022/04/20 06:20:47;;;;;;;6.63;5.43;;;10.20;94.60;;;;;;5004922;28;20029;-68
2022/04/20 06:23:13;;;;;;;7.63;4.90;;;10.20;93.90;;;;;;5001191;28;20022;-68
2022/04/20 06:25:39;;;;;;;9.35;5.35;;;10.30;95.10;;;;;;4998363;28;20385;-68
2022/04/20 06:28:05;;;;;;;7.63;4.90;;;10.30;94.80;;;;;;5006055;28;20037;-68
2022/04/20 06:30:31;;;;;;;9.60;4.65;;;10.30;93.90;;;;;;5004760;28;20033;-68
2022/04/20 06:32:56;;;;;;;7.20;5.13;;;10.40;93.20;;;;;;4999302;28;20022;-68
2022/04/20 06:35:22;;;;;;;8.25;5.40;;;10.50;94.10;;;;;;5007157;28;20038;-70
2022/04/20 06:37:48;;;;;;;12.93;5.55;;;10.60;93.50;;;;;;5001827;28;20385;-68
2022/04/20 06:40:14;;;;;;;8.43;5.00;;;10.60;93.50;;;;;;5006662;28;20042;-70
2022/04/20 06:42:40;;;;;;;8.43;5.28;;;10.70;93.10;;;;;;5001234;28;20014;-68
2022/04/20 06:45:06;;;;;;;12.80;5.20;;;10.60;93.40;;;;;;4999705;28;20042;-67
2022/04/20 06:47:33;;;;;;;9.70;5.40;;;10.70;94.30;;;;;;4999253;28;20022;-68
2022/04/20 06:49:59;;;;;;;8.77;5.60;;;10.90;94.10;;;;;;5001444;28;20061;-70
2022/04/20 07:00:37;;;;;;;12.93;5.60;;;11.30;93.50;;;;;;5007825;28;20045;-68
2022/04/20 07:03:06;;;;;;;9.27;5.88;;;11.30;92.50;;;;;;5007997;28;20022;-67
2022/04/20 07:05:33;;;;;;;10.60;6.22;;;11.50;92.40;;;;;;5009424;28;20044;-67
2022/04/20 07:08:03;;;;;;;7.22;4.97;;;11.50;92.60;;;;;;5004229;28;20032;-68
2022/04/20 07:10:29;;;;;;;10.85;5.45;;;11.50;92.40;;;;;;5003302;28;20038;-68
2022/04/20 07:12:55;;;;;;;8.88;5.07;;;11.50;92.40;;;;;;5001535;28;20079;-68
2022/04/20 07:15:21;;;;;;;8.02;5.68;;;11.60;92.20;;;;;;5004715;28;20033;-69
2022/04/20 07:17:46;;;;;;;8.32;5.45;;;11.80;91.60;;;;;;5004183;28;20033;-69
2022/04/20 07:20:17;;;;;;;10.82;5.22;;;11.90;91.90;;;;;;5004767;28;20038;-69
2022/04/20 07:22:46;;;;;;;9.73;5.15;;;12.00;91.80;;;;;;5003343;28;20018;-69
2022/04/20 07:25:12;;;;;;;9.10;4.65;;;12.20;91.50;;;;;;5002762;28;20034;-68
2022/04/20 07:27:38;;;;;;;9.13;5.22;;;12.30;90.80;;;;;;5001520;28;20057;-69
2022/04/20 07:30:04;;;;;;;9.75;5.43;;;12.40;91.00;;;;;;5005226;28;20042;-69
2022/04/20 07:32:29;;;;;;;8.98;4.93;;;12.50;90.70;;;;;;5005176;28;20091;-69
2022/04/20 07:34:55;;;;;;;7.88;4.68;;;12.70;90.40;;;;;;4997131;28;20061;-69
2022/04/20 07:37:20;;;;;;;8.07;4.80;;;12.80;90.60;;;;;;5006440;28;20025;-68
2022/04/20 07:39:47;;;;;;;7.78;5.10;;;12.80;90.40;;;;;;4996242;28;20029;-68
2022/04/20 07:42:13;;;;;;;8.82;4.55;;;13.10;89.60;;;;;;5005223;28;20474;-70
2022/04/20 07:44:39;;;;;;;7.00;4.53;;;13.20;87.20;;;;;;5001789;28;20084;-68
2022/04/20 07:47:04;;;;;;;8.15;5.15;;;13.40;88.10;;;;;;4994631;28;20073;-68
2022/04/20 07:50:31;;;;;;;9.15;5.18;;;13.60;87.50;;;;;;4990150;28;20025;-70
2022/04/20 07:52:25;;;;;;;6.47;5.20;;;13.70;86.90;;;;;;4990833;28;20121;-69
2022/04/20 07:54:51;;;;;;;6.35;4.53;;;13.90;86.90;;;;;;5001145;28;20062;-68
2022/04/20 07:57:16;;;;;;;9.10;4.82;;;14.00;87.10;;;;;;5004210;28;20019;-69
2022/04/20 07:59:43;;;;;;;7.13;4.70;;;14.20;87.50;;;;;;4999651;28;20117;-69
2022/04/20 08:02:08;;;;;;;8.05;4.40;;;14.30;87.30;;;;;;5000929;28;20054;-69
2022/04/20 08:04:34;;;;;;;10.23;4.35;;;14.40;84.20;;;;;;4998391;28;20159;-69
2022/04/20 08:07:00;;;;;;;7.00;4.25;;;14.50;85.10;;;;;;5000016;28;20493;-69
2022/04/20 08:09:26;;;;;;;7.68;4.25;;;14.70;83.00;;;;;;5000207;28;20065;-69
2022/04/20 08:11:52;;;;;;;9.40;4.38;;;14.90;84.50;;;;;;5002058;28;20443;-69
2022/04/20 08:14:18;;;;;;;4.85;4.22;;;15.00;82.50;;;;;;4999853;28;20127;-69
2022/04/20 08:16:44;;;;;;;11.65;4.95;;;14.90;81.40;;;;;;5001401;28;20109;-69
2022/04/20 08:19:10;;;;;;;8.82;4.63;;;15.10;82.30;;;;;;4997694;28;20038;-69
2022/04/20 08:21:36;;;;;;;7.78;4.43;;;15.20;81.60;;;;;;5004572;28;20017;-69
2022/04/20 08:24:03;;;;;;;5.80;4.18;;;15.20;80.10;;;;;;5002767;28;20041;-69
2022/04/20 08:26:29;;;;;;;9.80;4.50;;;15.20;83.00;;;;;;5004069;28;20025;-69
2022/04/20 08:28:57;;;;;;;6.93;4.20;;;15.40;80.70;;;;;;5003364;28;20021;-71
2022/04/20 08:31:24;;;;;;;6.95;4.97;;;15.50;81.80;;;;;;5005502;28;20022;-70
2022/04/20 08:33:50;;;;;;;9.05;4.20;;;15.60;79.00;;;;;;5000809;28;20022;-69
2022/04/20 08:36:16;;;;;;;6.90;4.90;;;15.70;79.30;;;;;;4997987;28;20037;-67
2022/04/20 08:38:44;;;;;;;6.97;4.93;;;15.80;80.20;;;;;;5001589;28;20635;-69
2022/04/20 08:41:14;;;;;;;6.57;4.93;;;15.80;80.60;;;;;;4995627;28;20049;-69
2022/04/20 08:43:41;;;;;;;6.97;4.72;;;16.00;80.10;;;;;;5001563;28;20045;-69
2022/04/20 08:46:10;;;;;;;7.40;4.82;;;16.10;76.80;;;;;;4999690;28;20038;-69
2022/04/20 08:48:36;;;;;;;9.20;4.95;;;16.10;78.60;;;;;;5000308;28;20054;-70
2022/04/20 08:51:06;;;;;;;10.13;4.70;;;16.10;77.10;;;;;;5000740;28;20083;-69
2022/04/20 08:53:32;;;;;;;9.75;5.03;;;16.20;76.20;;;;;;4999611;28;20584;-70
2022/04/20 08:58:46;;;;;;;7.22;4.45;;;16.50;76.10;;;;;;5000983;28;20500;-69
2022/04/20 09:01:13;;;;;;;8.52;5.30;;;16.60;76.90;;;;;;5007522;28;20027;-69
2022/04/20 09:03:39;;;;;;;9.80;4.97;;;16.70;76.90;;;;;;4999245;28;20054;-69
2022/04/20 09:06:07;;;;;;;5.72;4.18;;;16.80;75.20;;;;;;5005463;28;20123;-70
2022/04/20 09:08:34;;;;;;;6.25;4.15;;;17.00;75.70;;;;;;4998019;28;20068;-69
2022/04/20 09:11:00;;;;;;;6.72;4.65;;;17.10;74.10;;;;;;4997829;28;20501;-69
2022/04/20 09:13:35;;;;;;;4.90;4.40;;;16.90;74.20;;;;;;5006394;28;20106;-69
2022/04/20 09:16:09;;;;;;;6.30;4.07;;;17.20;74.50;;;;;;4996301;28;20026;-69
2022/04/20 09:18:36;;;;;;;7.03;4.00;;;17.40;74.40;;;;;;4989915;28;20456;-69
2022/04/20 09:21:07;;;;;;;5.72;4.13;;;17.30;73.20;;;;;;5002841;28;20037;-69
2022/04/20 09:23:33;;;;;;;12.23;4.15;;;17.20;73.20;;;;;;5004728;28;20028;-69
2022/04/20 09:26:07;;;;;;;4.75;3.55;;;17.30;71.40;;;;;;5004336;28;21117;-69
2022/04/20 09:28:33;;;;;;;6.75;3.90;;;17.50;73.30;;;;;;4997133;28;20537;-70
2022/04/20 09:30:59;;;;;;;8.27;4.30;;;17.60;71.00;;;;;;5002181;28;20101;-71
2022/04/20 09:33:45;;;;;;;6.18;4.05;;;17.60;72.40;;;;;;4994870;28;20160;-70
2022/04/20 09:36:12;;;;;;;4.97;3.70;;;17.80;71.00;;;;;;4999540;28;20065;-70
2022/04/20 09:38:41;;;;;;;6.57;3.50;;;18.10;72.40;;;;;;5004496;28;20033;-69
2022/04/20 09:41:10;;;;;;;4.50;3.42;;;18.10;70.60;;;;;;4999315;28;20031;-69
2022/04/20 09:43:37;;;;;;;5.00;3.25;;;18.20;71.30;;;;;;5000490;28;20018;-70
2022/04/20 09:48:50;;;;;;;6.35;3.08;;;18.50;71.30;;;;;;4997372;28;20387;-69
2022/04/20 09:49:11;;;;;;;4.15;3.33;;;18.70;74.00;;;;;;5001889;28;20038;-70
2022/04/20 09:51:41;;;;;;;6.35;3.97;;;18.50;70.90;;;;;;4997205;28;20047;-70
2022/04/20 09:54:29;;;;;;;4.78;3.90;;;18.70;68.60;;;;;;5002394;28;20071;-69
2022/04/20 09:57:11;;;;;;;4.82;3.17;;;18.60;70.60;;;;;;5005785;28;20022;-69
2022/04/20 09:59:54;;;;;;;7.72;3.13;;;18.50;69.40;;;;;;4999094;28;20063;-69
2022/04/20 10:02:19;;;;;;;5.30;3.40;;;18.50;68.80;;;;;;4999336;28;20506;-70
2022/04/20 10:04:47;;;;;;;6.40;3.83;;;18.70;69.60;;;;;;4996620;28;20034;-69
2022/04/20 10:07:13;;;;;;;5.15;3.35;;;18.60;67.80;;;;;;4997692;28;20026;-69
2022/04/20 10:09:39;;;;;;;3.00;2.75;;;18.80;68.50;;;;;;5007406;28;20026;-69
2022/04/20 10:12:06;;;;;;;7.03;2.90;;;18.90;68.60;;;;;;5002128;28;20038;-69
2022/04/20 10:17:23;;;;;;;3.03;2.78;;;18.80;69.50;;;;;;5002292;28;20056;-71
2022/04/20 10:19:49;;;;;;;5.43;3.27;;;18.90;66.40;;;;;;5002582;28;20033;-69
2022/04/20 10:22:18;;;;;;;4.88;3.42;;;18.60;67.70;;;;;;5002588;28;20472;-69
2022/04/20 10:24:49;;;;;;;4.93;3.65;;;18.70;67.40;;;;;;5006735;28;20034;-69
2022/04/20 10:27:43;;;;;;;5.90;3.60;;;18.90;68.60;;;;;;5005013;28;20022;-69
2022/04/20 10:30:18;;;;;;;3.33;2.85;;;18.80;68.60;;;;;;5004270;28;20117;-69
2022/04/20 10:33:02;;;;;;;3.40;3.00;;;19.10;66.90;;;;;;5006244;28;20143;-69
2022/04/20 10:35:28;;;;;;;4.63;3.63;;;19.60;67.90;;;;;;5003839;28;20036;-70
2022/04/20 10:38:13;;;;;;;8.18;3.72;;;19.70;67.80;;;;;;5000303;28;20105;-69
2022/04/20 10:41:05;;;;;;;6.85;3.72;;;19.50;66.60;;;;;;5008174;28;20499;-70
2022/04/20 10:43:32;;;;;;;3.88;3.42;;;19.50;66.10;;;;;;5008349;28;20030;-69
2022/04/20 10:46:06;;;;;;;4.50;3.60;;;19.30;67.50;;;;;;5004774;28;20485;-69
2022/04/20 10:49:17;;;;;;;8.45;3.95;;;19.00;67.50;;;;;;5000887;28;20078;-69
2022/04/20 10:51:45;;;;;;;7.47;4.07;;;19.00;67.70;;;;;;4998341;28;20138;-69
2022/04/20 10:54:28;;;;;;;5.70;4.05;;;19.20;66.90;;;;;;5001568;28;20026;-69
2022/04/20 10:56:59;;;;;;;4.10;3.70;;;19.30;66.80;;;;;;5000893;28;21051;-69
2022/04/20 10:59:25;;;;;;;5.10;3.38;;;19.10;65.40;;;;;;5000760;28;20034;-68
2022/04/20 11:02:02;;;;;;;5.50;3.50;;;19.20;69.70;;;;;;5004646;28;20022;-70
2022/04/20 11:04:39;;;;;;;4.85;4.35;;;19.20;68.50;;;;;;5007095;28;20033;-70
2022/04/20 11:07:08;;;;;;;8.65;4.07;;;19.40;68.00;;;;;;5008870;28;20034;-69
2022/04/20 11:09:43;;;;;;;6.72;4.25;;;19.60;67.60;;;;;;5007764;28;20019;-69
2022/04/20 11:18:38;;;;;;;6.97;4.18;;;19.80;66.00;;;;;;4958029;28;20039;-70
2022/04/20 11:21:05;;;;;;;5.45;4.30;;;20.10;66.80;;;;;;5001268;28;20112;-70
2022/04/20 11:23:58;;;;;;;6.85;4.22;;;20.10;66.80;;;;;;5001211;28;20029;-69
2022/04/20 11:26:27;;;;;;;5.93;3.60;;;20.00;67.20;;;;;;4992205;28;20398;-69
2022/04/20 11:28:55;;;;;;;4.28;3.50;;;20.00;65.40;;;;;;4997982;28;20026;-70
2022/04/20 11:31:21;;;;;;;9.30;4.07;;;20.10;67.20;;;;;;5002564;28;20565;-70
2022/04/20 11:33:47;;;;;;;4.22;3.38;;;20.10;66.60;;;;;;5003765;28;20475;-69
2022/04/20 11:36:14;;;;;;;6.75;4.05;;;20.10;66.60;;;;;;5005025;28;20025;-69
2022/04/20 11:38:41;;;;;;;4.28;3.67;;;20.00;65.80;;;;;;4999527;28;20034;-69
2022/04/20 11:41:09;;;;;;;4.03;3.20;;;20.00;66.60;;;;;;5000480;28;20430;-70
2022/04/20 11:43:36;;;;;;;6.53;3.72;;;20.20;66.30;;;;;;5000159;28;20503;-69
2022/04/20 11:46:03;;;;;;;7.93;3.40;;;20.30;67.10;;;;;;5003681;28;20119;-69
2022/04/20 11:48:32;;;;;;;6.32;4.10;;;20.30;67.10;;;;;;5002380;28;20156;-69
2022/04/20 11:51:00;;;;;;;4.88;4.07;;;20.20;64.10;;;;;;5002086;28;20037;-70
2022/04/20 11:53:38;;;;;;;4.47;3.97;;;20.20;64.90;;;;;;5000612;28;20021;-70
2022/04/20 11:56:07;;;;;;;5.70;4.47;;;20.60;66.80;;;;;;5002667;28;20028;-69
2022/04/20 11:58:34;;;;;;;5.03;3.97;;;20.70;63.20;;;;;;5001178;28;20374;-69
2022/04/20 12:01:04;;;;;;;7.65;4.13;;;20.30;64.50;;;;;;5004845;28;20014;-69
2022/04/20 12:03:41;;;;;;;7.65;4.05;;;20.20;66.10;;;;;;5001535;28;20155;-70
2022/04/20 12:06:09;;;;;;;6.88;4.30;;;20.00;65.10;;;;;;5000481;28;20040;-70
2022/04/20 12:08:37;;;;;;;9.82;4.55;;;20.20;68.40;;;;;;5004801;28;20026;-70
2022/04/20 12:11:08;;;;;;;7.10;3.80;;;20.30;68.80;;;;;;5001803;28;20079;-70
2022/04/20 12:13:35;;;;;;;6.63;3.90;;;20.60;67.10;;;;;;5004231;28;20113;-70
2022/04/20 12:16:11;;;;;;;9.05;4.55;;;20.50;65.30;;;;;;4997458;28;20026;-69
2022/04/20 12:18:41;;;;;;;7.05;4.93;;;20.40;66.00;;;;;;4997483;28;20026;-70
2022/04/20 12:21:37;;;;;;;7.50;4.32;;;20.60;66.00;;;;;;4996635;28;20073;-69
2022/04/20 12:24:03;;;;;;;8.88;4.38;;;20.80;65.60;;;;;;4994422;28;20034;-70
2022/04/20 12:26:30;;;;;;;8.75;4.35;;;21.10;67.50;;;;;;5000757;28;20075;-70
2022/04/20 12:29:03;;;;;;;8.30;4.47;;;21.10;64.40;;;;;;4999795;28;20026;-70
2022/04/20 12:31:30;;;;;;;6.00;3.63;;;21.00;64.70;;;;;;5002821;28;20397;-70
2022/04/20 12:34:06;;;;;;;10.02;4.43;;;21.00;66.50;;;;;;5003261;28;20025;-70
2022/04/20 12:36:48;;;;;;;7.97;4.63;;;21.10;66.50;;;;;;4996051;28;20114;-73
2022/04/20 12:39:27;;;;;;;;;;;21.10;64.60;;;;;;5003104;28;20033;-68
2022/04/20 12:41:55;;;;;;;11.88;4.28;;;21.20;63.30;;;;;;5002834;28;19967;-71
2022/04/20 12:44:39;;;;;;;5.20;4.40;;;21.20;64.20;;;;;;5002348;28;20055;-71
2022/04/20 12:47:08;;;;;;;6.85;4.60;;;21.00;66.30;;;;;;5003215;28;20374;-72
2022/04/20 12:49:34;;;;;;;8.68;4.72;;;21.10;65.80;;;;;;5001093;28;20018;-71
2022/04/20 12:52:17;;;;;;;6.50;3.92;;;21.20;64.70;;;;;;5004835;28;20038;-71
2022/04/20 12:55:17;;;;;;;4.50;4.05;;;20.80;64.40;;;;;;4997734;28;20021;-71
2022/04/20 13:03:36;;;;;;;7.28;4.72;;;21.20;64.20;;;;;;5002777;28;20084;-72
2022/04/20 13:06:06;;;;;;;6.38;4.45;;;20.80;65.30;;;;;;5003047;28;20821;-72
2022/04/20 13:08:32;;;;;;;5.55;4.28;;;21.00;65.90;;;;;;5004467;28;20021;-72
2022/04/20 13:10:58;;;;;;;4.38;3.97;;;20.90;64.80;;;;;;5001677;28;20752;-72
2022/04/20 13:13:27;;;;;;;5.05;4.55;;;21.10;67.10;;;;;;4999313;28;20046;-71
2022/04/20 13:15:53;;;;;;;8.88;4.50;;;20.90;66.10;;;;;;5003854;28;20087;-71
2022/04/20 13:18:19;;;;;;;7.82;4.18;;;20.90;65.10;;;;;;5005560;28;20040;-70
2022/04/20 13:20:45;;;;;;;7.35;4.15;;;20.70;65.90;;;;;;5003376;28;20018;-70
2022/04/20 13:23:11;;;;;;;8.88;4.55;;;20.70;67.30;;;;;;5002016;28;20031;-71
2022/04/20 13:28:22;;;;;;;8.32;3.88;;;20.60;66.00;;;;;;5000549;28;20030;-70
2022/04/20 13:30:49;;;;;;;9.45;4.47;;;20.90;65.10;;;;;;4995717;28;20689;-71
2022/04/20 13:33:15;;;;;;;6.55;4.38;;;21.00;67.50;;;;;;5000337;28;20022;-71